.
WxDataArchive / Data Records for 2008-04-15
2008-04-14 April 2008 2008-04-16

Data Records for Tuesday, 15 April 2008

Time	Temp	Chill	HIndex	Humid	Dewpt	 Wind 	HiWind	WindDir	Rain 	Barom 
-----	----	-----	------	-----	-----	------	------	-------	-----	----- 
00:00	37.5	37.5	37.5	64	26.4	0	1	292	0.00	30.226 
00:05	37.2	37.2	37.2	64	26.2	0	1	292	0.00	30.226 
00:10	37.0	37.0	37.0	65	26.3	0	0	---	0.00	30.226 
00:15	36.9	36.9	36.9	65	26.3	0	1	292	0.00	30.226 
00:20	36.8	36.8	36.8	64	25.8	0	1	292	0.00	30.233 
00:25	36.6	36.6	36.6	64	25.6	0	1	292	0.00	30.231 
00:30	36.5	36.5	36.5	65	25.9	0	0	---	0.00	30.231 
00:35	36.2	36.2	36.2	65	25.6	0	0	---	0.00	30.229 
00:40	35.9	35.9	35.9	66	25.7	0	0	---	0.00	30.231 
00:45	35.8	35.8	35.8	66	25.6	0	0	---	0.00	30.230 
00:50	35.6	35.6	35.6	67	25.7	0	1	292	0.00	30.230 
00:55	35.5	35.5	35.5	67	25.6	0	1	292	0.00	30.234 
01:00	35.3	35.3	35.3	67	25.5	0	0	---	0.00	30.234 
01:05	35.0	35.0	35.0	68	25.5	0	0	---	0.00	30.231 
01:10	34.9	34.9	34.9	68	25.4	0	0	---	0.00	30.230 
01:15	34.7	34.7	34.7	68	25.2	0	0	---	0.00	30.231 
01:20	34.4	34.4	34.4	69	25.3	0	0	---	0.00	30.228 
01:25	34.3	34.3	34.3	69	25.2	0	0	---	0.00	30.228 
01:30	34.1	34.1	34.1	69	25.0	0	0	---	0.00	30.227 
01:35	34.0	34.0	34.0	70	25.3	0	0	---	0.00	30.226 
01:40	33.8	33.8	33.8	70	25.1	0	0	---	0.00	30.226 
01:45	33.7	33.7	33.7	71	25.3	0	0	---	0.00	30.226 
01:50	33.4	33.4	33.4	71	25.0	0	0	---	0.00	30.226 
01:55	33.1	33.1	33.1	72	25.1	0	0	---	0.00	30.225 
02:00	32.8	32.8	32.8	73	25.1	0	0	---	0.00	30.225 
02:05	32.5	32.5	32.5	74	25.2	0	0	---	0.00	30.225 
02:10	32.2	32.2	32.2	75	25.2	0	0	---	0.00	30.225 
02:15	31.9	31.9	31.9	75	24.9	0	0	---	0.00	30.225 
02:20	31.8	31.8	31.8	76	25.1	0	0	---	0.00	30.226 
02:25	31.3	31.3	31.3	77	24.9	0	0	---	0.00	30.227 
02:30	31.2	31.2	31.2	77	24.8	0	0	---	0.00	30.228 
02:35	30.9	30.9	30.9	78	24.9	0	0	---	0.00	30.228 
02:40	30.6	30.6	30.6	78	24.6	0	0	---	0.00	30.227 
02:45	30.4	30.4	30.4	79	24.7	0	0	---	0.00	30.226 
02:50	30.1	30.1	30.1	79	24.4	0	0	---	0.00	30.227 
02:55	30.0	30.0	30.0	80	24.6	0	0	---	0.00	30.226 
03:00	29.8	29.8	29.8	81	24.7	0	0	---	0.00	30.226 
03:05	29.5	29.5	29.5	81	24.4	0	0	---	0.00	30.229 
03:10	29.4	29.4	29.4	81	24.3	0	0	---	0.00	30.229 
03:15	29.3	29.3	29.3	81	24.2	0	0	---	0.00	30.229 
03:20	29.0	29.0	29.0	81	23.9	0	0	---	0.00	30.229 
03:25	28.8	28.8	28.8	82	24.0	0	0	---	0.00	30.231 
03:30	28.7	28.7	28.7	83	24.2	0	0	---	0.00	30.231 
03:35	28.7	28.7	28.7	84	24.5	0	0	---	0.00	30.231 
03:40	28.5	28.5	28.5	84	24.3	0	0	---	0.00	30.232 
03:45	28.5	28.5	28.5	84	24.3	0	0	---	0.00	30.231 
03:50	28.4	28.4	28.4	84	24.2	0	0	---	0.00	30.234 
03:55	28.2	28.2	28.2	85	24.3	0	0	---	0.00	30.235 
04:00	28.2	28.2	28.2	85	24.3	0	0	---	0.00	30.237 
04:05	28.4	28.4	28.4	86	24.8	0	0	---	0.00	30.235 
04:10	28.4	28.4	28.4	86	24.8	0	0	---	0.00	30.234 
04:15	28.4	28.4	28.4	86	24.8	0	0	---	0.00	30.232 
04:20	28.4	28.4	28.4	86	24.8	0	0	---	0.00	30.231 
04:25	28.2	28.2	28.2	86	24.6	0	0	---	0.00	30.230 
04:30	28.1	28.1	28.1	86	24.5	0	0	---	0.00	30.231 
04:35	27.9	27.9	27.9	86	24.3	0	0	---	0.00	30.232 
04:40	27.8	27.8	27.8	87	24.4	0	0	---	0.00	30.232 
04:45	27.8	27.8	27.8	87	24.4	0	0	---	0.00	30.235 
04:50	27.8	27.8	27.8	87	24.4	0	0	---	0.00	30.236 
04:55	27.6	27.6	27.6	87	24.2	0	0	---	0.00	30.239 
05:00	27.6	27.6	27.6	87	24.2	0	0	---	0.00	30.239 
05:05	27.5	27.5	27.5	87	24.1	0	0	---	0.00	30.244 
05:10	27.3	27.3	27.3	87	24.0	0	0	---	0.00	30.245 
05:15	27.2	27.2	27.2	87	23.9	0	0	---	0.00	30.246 
05:20	27.0	27.0	27.0	87	23.7	0	0	---	0.00	30.246 
05:25	26.9	26.9	26.9	87	23.6	0	0	---	0.00	30.246 
05:30	26.9	26.9	26.9	88	23.8	0	0	---	0.00	30.247 
05:35	26.7	26.7	26.7	88	23.6	0	0	---	0.00	30.247 
05:40	26.7	26.7	26.7	88	23.6	0	0	---	0.00	30.248 
05:45	26.6	26.6	26.6	88	23.5	0	0	---	0.00	30.249 
05:50	26.6	26.6	26.6	88	23.5	0	0	---	0.00	30.247 
05:55	26.4	26.4	26.4	88	23.3	0	0	---	0.00	30.251 
06:00	26.4	26.4	26.4	88	23.3	0	0	---	0.00	30.255 
06:05	26.4	26.4	26.4	88	23.3	0	0	---	0.00	30.260 
06:10	26.4	26.4	26.4	88	23.3	0	0	---	0.00	30.258 
06:15	26.3	26.3	26.3	88	23.2	0	0	---	0.00	30.261 
06:20	26.3	26.3	26.3	89	23.5	0	0	---	0.00	30.262 
06:25	26.4	26.4	26.4	89	23.6	0	0	---	0.00	30.264 
06:30	26.6	26.6	26.6	89	23.8	0	0	---	0.00	30.264 
06:35	26.9	26.9	26.9	90	24.4	0	0	---	0.00	30.264 
06:40	27.2	27.2	27.2	90	24.7	0	0	---	0.00	30.267 
06:45	27.8	27.8	27.8	90	25.3	0	0	---	0.00	30.268 
06:50	28.4	28.4	28.4	90	25.8	0	0	---	0.00	30.270 
06:55	29.0	29.0	29.0	90	26.4	0	0	---	0.00	30.270 
07:00	29.7	29.7	29.7	90	27.1	0	0	---	0.00	30.274 
07:05	30.4	30.4	30.4	89	27.6	0	0	---	0.00	30.280 
07:10	31.2	31.2	31.2	88	28.1	0	0	---	0.00	30.278 
07:15	32.2	32.2	32.2	88	29.1	0	0	---	0.00	30.279 
07:20	33.5	33.5	33.5	85	29.5	0	0	---	0.00	30.277 
07:25	35.0	35.0	35.0	81	29.8	0	0	---	0.00	30.275 
07:30	36.5	36.5	36.5	75	29.3	0	0	---	0.00	30.276 
07:35	37.2	37.2	37.2	73	29.4	0	0	---	0.00	30.274 
07:40	37.9	37.9	37.9	71	29.4	0	1	292	0.00	30.275 
07:45	39.1	39.1	39.1	69	29.8	0	2	292	0.00	30.275 
07:50	40.1	40.1	40.1	67	30.0	0	4	292	0.00	30.276 
07:55	40.6	40.6	40.6	62	28.6	1	5	248	0.00	30.278 
08:00	40.9	40.9	40.9	62	28.9	1	4	248	0.00	30.282 
08:05	41.3	41.3	41.3	61	28.9	1	4	248	0.00	30.290 
08:10	41.8	41.8	41.8	61	29.4	1	3	248	0.00	30.289 
08:15	42.2	42.2	42.2	59	28.9	1	4	270	0.00	30.290 
08:20	42.5	42.5	42.5	56	27.9	2	5	248	0.00	30.291 
08:25	42.9	42.9	42.9	58	29.2	1	5	248	0.00	30.293 
08:30	43.1	43.1	43.1	56	28.5	2	5	248	0.00	30.297 
08:35	43.6	43.6	43.6	56	29.0	1	4	248	0.00	30.298 
08:40	44.1	44.1	44.1	54	28.5	2	7	248	0.00	30.301 
08:45	44.3	44.3	44.3	54	28.7	2	7	248	0.00	30.303 
08:50	45.1	45.1	45.1	53	29.0	2	5	248	0.00	30.303 
08:55	45.2	45.2	45.2	52	28.6	2	4	248	0.00	30.303 
09:00	45.5	45.5	45.5	52	28.9	2	6	248	0.00	30.301 
09:05	45.7	45.7	45.7	50	28.1	3	6	248	0.00	30.305 
09:10	45.7	45.7	45.7	51	28.6	3	7	248	0.00	30.305 
09:15	46.1	46.1	46.1	51	29.0	2	6	248	0.00	30.305 
09:20	46.5	46.5	46.5	51	29.4	2	5	248	0.00	30.307 
09:25	47.1	47.1	47.1	50	29.4	2	5	270	0.00	30.307 
09:30	47.7	47.7	47.7	55	32.3	1	5	248	0.00	30.308 
09:35	47.7	47.7	47.7	52	30.9	2	7	248	0.00	30.305 
09:40	47.7	47.7	47.7	47	28.5	2	7	270	0.00	30.304 
09:45	48.0	48.0	48.0	50	30.3	1	5	248	0.00	30.304 
09:50	48.9	48.9	48.9	50	31.1	1	5	248	0.00	30.301 
09:55	49.2	49.2	49.2	49	30.9	2	4	248	0.00	30.300 
10:00	49.8	49.8	49.8	46	29.9	1	4	248	0.00	30.300 
10:05	50.5	50.5	50.5	49	32.1	1	3	248	0.00	30.299 
10:10	51.0	51.0	51.0	43	29.3	1	4	248	0.00	30.298 
10:15	51.1	51.1	51.1	44	30.0	2	5	90	0.00	30.294 
10:20	51.0	51.0	51.0	45	30.4	2	6	248	0.00	30.293 
10:25	51.3	51.3	51.3	46	31.2	1	5	248	0.00	30.294 
10:30	51.4	51.4	51.4	41	28.5	2	5	248	0.00	30.294 
10:35	51.9	51.9	51.9	41	28.9	2	4	90	0.00	30.292 
10:40	52.0	52.0	52.0	39	27.8	2	6	248	0.00	30.289 
10:45	51.9	51.9	51.9	36	25.8	2	6	248	0.00	30.288 
10:50	52.3	52.3	52.3	39	28.1	2	4	248	0.00	30.286 
10:55	52.8	52.8	52.8	33	24.5	2	7	248	0.00	30.284 
11:00	52.3	52.3	52.3	39	28.1	3	9	248	0.00	30.283 
11:05	52.5	52.5	52.5	38	27.6	2	5	270	0.00	30.283 
11:10	53.1	53.1	53.1	38	28.2	2	7	112	0.00	30.282 
11:15	53.2	53.2	53.2	37	27.6	2	7	248	0.00	30.280 
11:20	53.2	53.2	53.2	38	28.3	1	6	248	0.00	30.277 
11:25	53.5	53.5	53.5	38	28.5	1	4	248	0.00	30.275 
11:30	53.8	53.8	53.8	41	30.7	2	9	248	0.00	30.272 
11:35	54.1	54.1	54.1	40	30.3	2	6	68	0.00	30.272 
11:40	54.1	54.1	54.1	37	28.4	2	6	90	0.00	30.269 
11:45	54.4	54.4	54.4	39	30.0	1	3	248	0.00	30.267 
11:50	54.1	54.1	54.1	32	24.9	4	7	270	0.00	30.267 
11:55	53.8	53.8	53.8	38	28.8	1	4	270	0.00	30.263 
12:00	54.1	54.1	54.1	32	24.9	2	7	270	0.00	30.261 
12:05	54.4	54.4	54.4	35	27.3	3	9	248	0.00	30.259 
12:10	54.4	54.4	54.4	35	27.3	3	7	248	0.00	30.261 
12:15	54.7	54.7	54.7	37	28.9	2	6	248	0.00	30.255 
12:20	54.5	54.5	54.5	33	26.0	3	9	248	0.00	30.255 
12:25	54.7	54.7	54.7	39	30.2	2	6	270	0.00	30.252 
12:30	55.0	55.0	55.0	36	28.5	2	6	248	0.00	30.251 
12:35	55.0	55.0	55.0	37	29.2	2	6	270	0.00	30.250 
12:40	55.4	55.4	55.4	35	28.2	2	5	270	0.00	30.242 
12:45	55.7	55.7	55.7	34	27.8	2	6	248	0.00	30.240 
12:50	55.7	55.7	55.7	31	25.5	3	7	248	0.00	30.238 
12:55	55.6	55.6	55.6	36	29.1	3	7	248	0.00	30.237 
13:00	55.7	55.7	55.7	32	26.3	2	6	270	0.00	30.235 
13:05	56.3	56.3	56.3	34	28.3	2	7	248	0.00	30.234 
13:10	56.2	56.2	56.2	34	28.2	4	7	248	0.00	30.232 
13:15	56.5	56.5	56.5	33	27.7	2	7	248	0.00	30.227 
13:20	56.6	56.6	56.6	32	27.1	3	10	248	0.00	30.223 
13:25	56.3	56.3	56.3	31	26.1	3	9	248	0.00	30.224 
13:30	55.9	55.9	55.9	35	28.7	4	7	248	0.00	30.223 
13:35	55.9	55.9	55.9	34	27.9	3	7	270	0.00	30.221 
13:40	56.6	56.6	56.6	35	29.3	3	7	270	0.00	30.219 
13:45	56.6	56.6	56.6	33	27.8	3	7	248	0.00	30.218 
13:50	56.5	56.5	56.5	36	29.9	2	6	248	0.00	30.214 
13:55	57.0	57.0	57.0	34	28.9	2	4	248	0.00	30.209 
14:00	57.2	57.2	57.2	32	27.6	2	5	270	0.00	30.206 
14:05	57.6	57.6	57.6	34	29.4	3	10	270	0.00	30.208 
14:10	57.5	57.5	57.5	29	25.5	3	11	248	0.00	30.206 
14:15	57.5	57.5	57.5	29	25.5	3	10	248	0.00	30.203 
14:20	57.6	57.6	57.6	29	25.6	4	10	248	0.00	30.204 
14:25	57.5	57.5	57.5	35	30.1	2	6	248	0.00	30.200 
14:30	57.8	57.8	57.8	29	25.8	3	6	248	0.00	30.197 
14:35	57.6	57.6	57.6	29	25.6	3	9	270	0.00	30.194 
14:40	57.8	57.8	57.8	30	26.6	3	10	270	0.00	30.194 
14:45	57.6	57.6	57.6	32	28.0	2	6	248	0.00	30.194 
14:50	57.6	57.6	57.6	31	27.2	2	5	248	0.00	30.191 
14:55	58.0	58.0	58.0	34	29.8	3	12	248	0.00	30.190 
15:00	58.0	58.0	58.0	29	25.9	3	8	248	0.00	30.190 
15:05	58.1	58.1	58.1	31	27.6	3	12	248	0.00	30.191 
15:10	57.6	57.6	57.6	27	23.9	5	10	270	0.00	30.189 
15:15	58.0	58.0	58.0	33	29.1	2	6	248	0.00	30.188 
15:20	58.0	58.0	58.0	30	26.7	3	9	270	0.00	30.185 
15:25	58.0	58.0	58.0	28	25.1	3	10	248	0.00	30.184 
15:30	58.0	58.0	58.0	28	25.1	4	7	248	0.00	30.180 
15:35	58.1	58.1	58.1	27	24.3	3	9	248	0.00	30.179 
15:40	58.0	58.0	58.0	31	27.5	3	9	248	0.00	30.178 
15:45	57.6	57.6	57.6	29	25.6	4	9	270	0.00	30.177 
15:50	57.8	57.8	57.8	31	27.4	3	7	248	0.00	30.176 
15:55	58.1	58.1	58.1	28	25.2	3	11	248	0.00	30.176 
16:00	58.0	58.0	58.0	27	24.2	3	10	248	0.00	30.175 
16:05	58.3	58.3	58.3	33	29.3	1	5	225	0.00	30.173 
16:10	58.4	58.4	58.4	31	27.9	2	7	248	0.00	30.173 
16:15	58.3	58.3	58.3	30	27.0	3	6	270	0.00	30.167 
16:20	58.3	58.3	58.3	29	26.2	3	11	248	0.00	30.170 
16:25	58.1	58.1	58.1	29	26.0	2	9	248	0.00	30.164 
16:30	57.8	57.8	57.8	28	24.9	3	10	248	0.00	30.163 
16:35	57.6	57.6	57.6	30	26.4	3	7	90	0.00	30.160 
16:40	57.8	57.8	57.8	28	24.9	3	11	270	0.00	30.160 
16:45	57.6	57.6	57.6	28	24.7	4	11	270	0.00	30.158 
16:50	57.8	57.8	57.8	29	25.8	2	6	248	0.00	30.156 
16:55	58.1	58.1	58.1	30	26.8	2	10	225	0.00	30.155 
17:00	58.0	58.0	58.0	28	25.1	3	10	248	0.00	30.155 
17:05	57.8	57.8	57.8	31	27.4	3	6	270	0.00	30.155 
17:10	57.8	57.8	57.8	32	28.1	2	7	248	0.00	30.154 
17:15	57.6	57.6	57.6	29	25.6	1	6	248	0.00	30.151 
17:20	57.3	57.3	57.3	29	25.3	3	10	248	0.00	30.153 
17:25	57.0	57.0	57.0	28	24.2	3	6	248	0.00	30.150 
17:30	57.0	57.0	57.0	31	26.7	1	6	270	0.00	30.149 
17:35	56.9	56.9	56.9	28	24.1	3	7	248	0.00	30.148 
17:40	56.9	56.9	56.9	30	25.8	2	7	248	0.00	30.147 
17:45	56.7	56.7	56.7	31	26.4	2	8	248	0.00	30.147 
17:50	56.6	56.6	56.6	28	23.9	3	7	248	0.00	30.148 
17:55	56.5	56.5	56.5	28	23.8	4	9	270	0.00	30.148 
18:00	56.2	56.2	56.2	29	24.4	3	7	248	0.00	30.147 
18:05	56.0	56.0	56.0	29	24.2	3	8	248	0.00	30.142 
18:10	56.0	56.0	56.0	29	24.2	2	9	248	0.00	30.142 
18:15	55.9	55.9	55.9	31	25.7	3	10	248	0.00	30.143 
18:20	55.9	55.9	55.9	31	25.7	1	5	248	0.00	30.142 
18:25	55.7	55.7	55.7	32	26.3	2	5	248	0.00	30.141 
18:30	55.4	55.4	55.4	35	28.2	1	4	248	0.00	30.139 
18:35	55.1	55.1	55.1	34	27.2	2	7	248	0.00	30.139 
18:40	55.0	55.0	55.0	34	27.2	2	6	248	0.00	30.136 
18:45	54.7	54.7	54.7	35	27.6	1	5	225	0.00	30.135 
18:50	54.5	54.5	54.5	35	27.4	1	4	248	0.00	30.134 
18:55	54.1	54.1	54.1	37	28.4	0	2	248	0.00	30.133 
19:00	53.8	53.8	53.8	36	27.5	0	1	248	0.00	30.131 
19:05	53.3	53.3	53.3	37	27.7	0	2	270	0.00	30.121 
19:10	53.1	53.1	53.1	37	27.5	0	2	270	0.00	30.121 
19:15	52.9	52.9	52.9	38	28.0	1	3	202	0.00	30.121 
19:20	52.8	52.8	52.8	38	27.9	0	3	248	0.00	30.121 
19:25	52.5	52.5	52.5	39	28.3	0	2	248	0.00	30.122 
19:30	52.2	52.2	52.2	39	28.0	0	1	292	0.00	30.123 
19:35	51.9	51.9	51.9	39	27.7	0	4	292	0.00	30.123 
19:40	51.6	51.6	51.6	41	28.7	0	2	68	0.00	30.123 
19:45	51.3	51.3	51.3	40	27.8	0	1	68	0.00	30.123 
19:50	50.8	50.8	50.8	41	28.0	0	1	68	0.00	30.123 
19:55	50.5	50.5	50.5	41	27.7	0	1	68	0.00	30.122 
20:00	50.1	50.1	50.1	42	27.9	0	1	68	0.00	30.123 
20:05	49.8	49.8	49.8	42	27.6	0	0	---	0.00	30.119 
20:10	49.5	49.5	49.5	43	27.9	0	0	---	0.00	30.119 
20:15	49.1	49.1	49.1	43	27.6	0	0	---	0.00	30.122 
20:20	48.6	48.6	48.6	44	27.7	0	0	---	0.00	30.122 
20:25	48.2	48.2	48.2	46	28.4	0	0	---	0.00	30.122 
20:30	47.9	47.9	47.9	46	28.1	0	0	---	0.00	30.122 
20:35	47.6	47.6	47.6	46	27.9	0	0	---	0.00	30.121 
20:40	47.3	47.3	47.3	47	28.1	0	0	---	0.00	30.123 
20:45	47.1	47.1	47.1	47	27.9	0	0	---	0.00	30.123 
20:50	46.8	46.8	46.8	48	28.2	0	0	---	0.00	30.123 
20:55	46.7	46.7	46.7	48	28.1	0	1	68	0.00	30.122 
21:00	47.0	47.0	47.0	48	28.3	0	1	68	0.00	30.122 
21:05	47.3	47.3	47.3	47	28.1	0	1	68	0.00	30.118 
21:10	47.4	47.4	47.4	48	28.7	0	0	---	0.00	30.117 
21:15	47.3	47.3	47.3	47	28.1	0	1	68	0.00	30.113 
21:20	47.1	47.1	47.1	48	28.4	0	0	---	0.00	30.111 
21:25	47.0	47.0	47.0	48	28.3	0	1	68	0.00	30.108 
21:30	46.8	46.8	46.8	48	28.2	0	1	68	0.00	30.107 
21:35	46.8	46.8	46.8	48	28.2	0	2	68	0.00	30.105 
21:40	46.7	46.7	46.7	48	28.1	0	1	68	0.00	30.105 
21:45	46.8	46.8	46.8	46	27.1	0	1	68	0.00	30.106 
21:50	47.1	47.1	47.1	46	27.4	0	2	68	0.00	30.106 
21:55	47.0	47.0	47.0	47	27.8	0	0	---	0.00	30.107 
22:00	46.8	46.8	46.8	47	27.6	0	1	68	0.00	30.109 
22:05	46.5	46.5	46.5	48	27.9	0	1	68	0.00	30.105 
22:10	46.4	46.4	46.4	48	27.8	0	0	---	0.00	30.105 
22:15	46.1	46.1	46.1	49	28.0	0	1	68	0.00	30.103 
22:20	45.8	45.8	45.8	49	27.7	0	0	---	0.00	30.100 
22:25	45.8	45.8	45.8	49	27.7	0	1	68	0.00	30.101 
22:30	45.7	45.7	45.7	50	28.1	0	1	68	0.00	30.099 
22:35	45.5	45.5	45.5	50	28.0	0	1	68	0.00	30.097 
22:40	45.5	45.5	45.5	50	28.0	0	1	68	0.00	30.092 
22:45	45.5	45.5	45.5	50	28.0	0	1	68	0.00	30.090 
22:50	45.4	45.4	45.4	51	28.3	0	1	68	0.00	30.089 
22:55	45.4	45.4	45.4	50	27.9	0	2	90	0.00	30.090 
23:00	45.5	45.5	45.5	51	28.4	0	1	90	0.00	30.088 
23:05	45.5	45.5	45.5	51	28.4	0	2	112	0.00	30.086 
23:10	45.5	45.5	45.5	50	28.0	0	1	112	0.00	30.086 
23:15	45.5	45.5	45.5	50	28.0	0	1	112	0.00	30.085 
23:20	45.5	45.5	45.5	51	28.4	0	1	112	0.00	30.085 
23:25	45.7	45.7	45.7	50	28.1	0	2	112	0.00	30.085 
23:30	45.7	45.7	45.7	50	28.1	1	3	112	0.00	30.085 
23:35	45.8	45.8	45.8	50	28.2	0	2	68	0.00	30.085 
23:40	46.0	46.0	46.0	49	27.9	0	2	68	0.00	30.083 
23:45	45.8	45.8	45.8	50	28.2	0	3	158	0.00	30.083 
23:50	45.8	45.8	45.8	50	28.2	0	2	158	0.00	30.083 
23:55	45.7	45.7	45.7	50	28.1	0	1	158	0.00	30.083 

CoCoRaHS
IN-AL-39
A2 Web Hosting
Creative Commons License
GoDaddy
Look for:

loaded 2017-12-11 14:34:24 • last modified 2010-11-18 10:43:29
Privacy PolicyDisclaimer
• wx.awcolley.com is powered by PmWiki v.2002016 •
• all content (unless otherwise noted) © 2017 A W Colley